Time;durP1;ratioP1;P1;durP2;ratioP2;P2;SDS_P1;SDS_P2;PMS_P1;PMS_P2;Temp;Humidity;BMP_temperature;BMP_pressure;BME280_temperature;BME280_humidity;BME280_pressure;Samples;Min_cycle;Max_cycle;Signal;HPM_P1;HPM_P2
2023/07/20 00:00:29;;;;;;;4.90;3.17;;;20.10;79.50;;;;;;5094209;28;20042;-73
2023/07/20 00:03:10;;;;;;;5.68;3.50;;;20.10;79.60;;;;;;5095152;28;20059;-73
2023/07/20 00:05:36;;;;;;;5.20;3.22;;;20.10;79.70;;;;;;5094085;28;20035;-73
2023/07/20 00:08:02;;;;;;;9.00;3.80;;;20.10;80.00;;;;;;5094053;28;20032;-73
2023/07/20 00:10:27;;;;;;;6.05;3.75;;;20.10;80.10;;;;;;5094910;28;20033;-73
2023/07/20 00:12:53;;;;;;;8.70;3.80;;;20.10;80.00;;;;;;5094922;28;20048;-73
2023/07/20 00:15:18;;;;;;;8.27;4.28;;;20.10;80.40;;;;;;5094851;28;20060;-74
2023/07/20 00:17:44;;;;;;;9.15;4.28;;;20.10;81.30;;;;;;5093831;28;20021;-73
2023/07/20 00:20:11;;;;;;;8.20;4.22;;;20.10;81.90;;;;;;5094776;28;20025;-74
2023/07/20 00:22:36;;;;;;;11.85;4.85;;;20.10;82.10;;;;;;5094708;28;20032;-74
2023/07/20 00:25:03;;;;;;;7.80;4.05;;;20.10;82.60;;;;;;5094800;28;20033;-73
2023/07/20 00:27:28;;;;;;;9.45;4.53;;;20.00;83.10;;;;;;5093684;28;20088;-73
2023/07/20 00:29:54;;;;;;;10.95;4.57;;;20.10;83.50;;;;;;5094498;28;20040;-73
2023/07/20 00:32:19;;;;;;;7.50;4.03;;;20.00;83.80;;;;;;5093631;28;20029;-74
2023/07/20 00:34:45;;;;;;;10.45;4.65;;;20.10;84.20;;;;;;5094391;28;20029;-74
2023/07/20 00:37:10;;;;;;;10.00;4.70;;;20.00;84.20;;;;;;5093449;28;20017;-74
2023/07/20 00:39:36;;;;;;;7.82;4.82;;;20.00;83.80;;;;;;5076725;28;20475;-74
2023/07/20 00:42:02;;;;;;;8.18;4.82;;;19.90;84.20;;;;;;5076662;28;20013;-74
2023/07/20 00:44:27;;;;;;;9.35;4.70;;;19.80;84.40;;;;;;5094252;28;20537;-74
2023/07/20 00:46:53;;;;;;;7.60;4.72;;;19.80;85.10;;;;;;5076551;28;20031;-74
2023/07/20 00:49:21;;;;;;;9.93;4.90;;;19.90;85.40;;;;;;5076525;28;20024;-74
2023/07/20 00:51:48;;;;;;;9.38;5.18;;;19.90;85.50;;;;;;5093308;28;20092;-74
2023/07/20 00:54:15;;;;;;;7.90;4.55;;;20.00;85.50;;;;;;5093759;28;20128;-73
2023/07/20 00:56:40;;;;;;;8.43;4.75;;;19.90;85.50;;;;;;5093129;28;20086;-74
2023/07/20 00:59:06;;;;;;;8.45;5.15;;;19.90;85.70;;;;;;5093012;28;20041;-74
2023/07/20 01:01:32;;;;;;;8.80;5.20;;;19.90;85.80;;;;;;5093078;28;20032;-74
2023/07/20 01:03:58;;;;;;;9.27;5.40;;;19.90;85.90;;;;;;5094019;28;20533;-73
2023/07/20 01:06:44;;;;;;;10.40;5.38;;;19.90;86.00;;;;;;5092930;28;20032;-73
2023/07/20 01:09:18;;;;;;;11.13;5.97;;;19.90;86.00;;;;;;5093848;28;20024;-73
2023/07/20 01:12:04;;;;;;;11.18;5.93;;;19.80;86.40;;;;;;5093916;28;20024;-73
2023/07/20 01:14:32;;;;;;;11.48;5.93;;;19.80;86.50;;;;;;5092746;28;20087;-73
2023/07/20 01:16:58;;;;;;;10.75;5.75;;;19.70;86.60;;;;;;5076219;28;20025;-73
2023/07/20 01:19:23;;;;;;;8.88;5.47;;;19.70;86.50;;;;;;5075964;28;20115;-74
2023/07/20 01:21:59;;;;;;;9.30;6.35;;;19.60;86.60;;;;;;5092722;28;20076;-74
2023/07/20 01:24:39;;;;;;;10.43;6.10;;;19.70;86.70;;;;;;5093658;28;20012;-74
2023/07/20 01:27:40;;;;;;;10.23;5.53;;;19.60;86.80;;;;;;5093772;28;20046;-74
2023/07/20 01:30:29;;;;;;;9.50;5.90;;;19.70;86.60;;;;;;5093668;28;20059;-75
2023/07/20 01:32:57;;;;;;;9.43;5.97;;;19.60;86.60;;;;;;5092608;28;20096;-74
2023/07/20 01:35:27;;;;;;;10.60;6.22;;;19.60;86.60;;;;;;5092479;28;20021;-74
2023/07/20 01:37:54;;;;;;;10.43;6.22;;;19.60;86.80;;;;;;5093572;28;20016;-74
2023/07/20 01:40:22;;;;;;;9.95;6.65;;;19.50;86.80;;;;;;5092473;28;20033;-74
2023/07/20 01:42:48;;;;;;;15.05;7.97;;;19.60;87.80;;;;;;5092478;28;20028;-74
2023/07/20 01:45:14;;;;;;;12.55;7.78;;;19.60;87.00;;;;;;5092461;28;20024;-73
2023/07/20 01:47:40;;;;;;;11.13;7.03;;;19.60;87.10;;;;;;5093483;28;20050;-73
2023/07/20 01:50:06;;;;;;;13.07;7.22;;;19.60;87.30;;;;;;5093262;28;20406;-74
2023/07/20 01:52:32;;;;;;;14.15;7.80;;;19.60;87.20;;;;;;5092409;28;20025;-74
2023/07/20 01:54:57;;;;;;;11.63;7.85;;;19.50;87.10;;;;;;5092079;28;20127;-74
2023/07/20 01:57:23;;;;;;;12.73;7.90;;;19.50;87.10;;;;;;5092397;28;20016;-74
2023/07/20 01:59:49;;;;;;;11.63;7.50;;;19.50;87.00;;;;;;5092477;28;20052;-74
2023/07/20 02:02:14;;;;;;;11.75;7.55;;;19.50;87.00;;;;;;5075536;28;20035;-74
2023/07/20 02:04:40;;;;;;;11.00;7.65;;;19.50;87.10;;;;;;5093179;28;20036;-74
2023/07/20 02:07:05;;;;;;;13.07;7.90;;;19.50;87.10;;;;;;5095168;28;20048;-74
2023/07/20 02:09:31;;;;;;;12.82;7.63;;;19.50;87.10;;;;;;5079464;28;20033;-74
2023/07/20 02:11:57;;;;;;;11.77;8.13;;;19.50;87.10;;;;;;5096314;28;20039;-74
2023/07/20 02:14:22;;;;;;;13.55;8.27;;;19.40;87.20;;;;;;5096291;28;20468;-74
2023/07/20 02:16:52;;;;;;;11.60;8.13;;;19.40;87.30;;;;;;5097157;28;20043;-74
2023/07/20 02:19:18;;;;;;;11.63;8.10;;;19.40;87.30;;;;;;5097240;28;20032;-73
2023/07/20 02:21:44;;;;;;;13.38;7.25;;;19.40;87.30;;;;;;5096305;28;20021;-74
2023/07/20 02:24:10;;;;;;;14.52;8.82;;;19.50;87.50;;;;;;5096141;28;20033;-74
2023/07/20 02:26:36;;;;;;;13.35;7.65;;;19.50;87.40;;;;;;5097015;28;20032;-74
2023/07/20 02:29:04;;;;;;;13.40;7.88;;;19.50;87.40;;;;;;5096914;28;20030;-74
2023/07/20 02:31:30;;;;;;;14.50;8.30;;;19.40;87.30;;;;;;5096783;28;20017;-74
2023/07/20 02:33:56;;;;;;;13.95;8.77;;;19.40;87.40;;;;;;5096741;28;20027;-74
2023/07/20 02:36:21;;;;;;;14.68;8.73;;;19.40;87.40;;;;;;5095799;28;20036;-74
2023/07/20 02:38:47;;;;;;;12.40;7.95;;;19.30;87.30;;;;;;5095974;28;20025;-73
2023/07/20 02:41:13;;;;;;;13.63;8.68;;;19.30;87.50;;;;;;5096675;28;20029;-74
2023/07/20 02:43:39;;;;;;;13.27;8.57;;;19.30;87.60;;;;;;5095742;28;20044;-74
2023/07/20 02:46:04;;;;;;;13.68;7.90;;;19.30;87.40;;;;;;5095557;28;20037;-74
2023/07/20 02:48:30;;;;;;;13.23;9.27;;;19.20;87.20;;;;;;5096528;28;20024;-74
2023/07/20 02:50:56;;;;;;;12.57;8.00;;;19.20;87.20;;;;;;5096366;28;20166;-74
2023/07/20 02:53:21;;;;;;;12.32;8.32;;;19.20;87.20;;;;;;5095308;28;20038;-74
2023/07/20 02:55:47;;;;;;;12.32;7.95;;;19.20;87.20;;;;;;5078759;28;20035;-74
2023/07/20 02:58:13;;;;;;;12.43;8.00;;;19.10;87.20;;;;;;5096317;28;20021;-74
2023/07/20 03:00:38;;;;;;;12.50;7.88;;;19.10;87.20;;;;;;5096271;28;20054;-74
2023/07/20 03:03:04;;;;;;;12.35;7.75;;;19.10;87.30;;;;;;5096414;28;20035;-74
2023/07/20 03:05:29;;;;;;;11.85;8.27;;;19.00;87.50;;;;;;5096197;28;20024;-74
2023/07/20 03:08:03;;;;;;;11.88;8.10;;;19.10;87.50;;;;;;5095371;28;20029;-74
2023/07/20 03:10:29;;;;;;;12.23;7.88;;;19.10;87.50;;;;;;5096096;28;20047;-74
2023/07/20 03:12:54;;;;;;;12.68;8.05;;;19.10;87.50;;;;;;5095081;28;20029;-74
2023/07/20 03:15:20;;;;;;;10.93;7.68;;;19.10;87.40;;;;;;5095097;28;20092;-74
2023/07/20 03:17:45;;;;;;;10.55;7.03;;;19.10;87.50;;;;;;5093942;28;20036;-74
2023/07/20 03:20:12;;;;;;;11.05;6.78;;;19.10;87.40;;;;;;5095580;28;20037;-74
2023/07/20 03:22:38;;;;;;;11.40;6.90;;;19.00;87.20;;;;;;5094970;28;20048;-74
2023/07/20 03:25:04;;;;;;;9.25;6.05;;;19.00;87.20;;;;;;5095859;28;20033;-74
2023/07/20 03:27:30;;;;;;;9.20;6.78;;;19.00;87.10;;;;;;5094851;28;20028;-74
2023/07/20 03:29:55;;;;;;;7.95;6.13;;;19.00;87.20;;;;;;5095671;28;20040;-74
2023/07/20 03:32:21;;;;;;;11.32;6.40;;;18.90;87.00;;;;;;5077960;28;20020;-74
2023/07/20 03:34:47;;;;;;;7.93;5.47;;;18.90;86.80;;;;;;5077960;28;20036;-74
2023/07/20 03:37:13;;;;;;;9.48;6.25;;;18.90;86.70;;;;;;5094718;28;20032;-74
2023/07/20 03:39:39;;;;;;;8.70;5.65;;;18.80;86.70;;;;;;5094573;28;20028;-74
2023/07/20 03:42:04;;;;;;;7.68;5.53;;;18.80;86.90;;;;;;5077862;28;20055;-74
2023/07/20 03:44:30;;;;;;;8.82;5.45;;;18.80;87.00;;;;;;5094663;28;20084;-74
2023/07/20 03:46:56;;;;;;;7.88;5.30;;;18.70;86.70;;;;;;5094459;28;20046;-74
2023/07/20 03:49:22;;;;;;;8.35;5.70;;;18.80;86.50;;;;;;5095519;28;20037;-74
2023/07/20 03:51:47;;;;;;;7.47;5.32;;;18.70;86.50;;;;;;5095452;28;20032;-73
2023/07/20 03:54:13;;;;;;;9.27;5.43;;;18.60;86.50;;;;;;5094278;28;20090;-74
2023/07/20 03:56:38;;;;;;;8.10;5.30;;;18.60;86.70;;;;;;5094302;28;20028;-74
2023/07/20 03:59:04;;;;;;;9.10;5.22;;;18.60;86.80;;;;;;5094453;28;20028;-74
2023/07/20 04:01:36;;;;;;;7.60;5.15;;;18.50;86.70;;;;;;5095148;28;20032;-74
2023/07/20 04:04:05;;;;;;;7.18;5.10;;;18.50;86.70;;;;;;5095186;28;20111;-73
2023/07/20 04:06:30;;;;;;;5.45;4.40;;;18.50;86.60;;;;;;5095091;28;20025;-74
2023/07/20 04:08:56;;;;;;;6.53;4.65;;;18.50;86.60;;;;;;5094074;28;20063;-74
2023/07/20 04:11:21;;;;;;;6.65;4.30;;;18.50;86.50;;;;;;5077057;28;20044;-74
2023/07/20 04:13:47;;;;;;;6.70;5.10;;;18.50;86.40;;;;;;5094048;28;20036;-74
2023/07/20 04:16:13;;;;;;;6.53;4.30;;;18.50;86.40;;;;;;5093938;28;20058;-74
2023/07/20 04:18:38;;;;;;;6.78;4.47;;;18.50;86.30;;;;;;5094852;28;20410;-74
2023/07/20 04:21:04;;;;;;;6.97;4.25;;;18.40;86.20;;;;;;5093861;28;20055;-74
2023/07/20 04:23:29;;;;;;;7.55;4.28;;;18.40;86.20;;;;;;5093851;28;20040;-74
2023/07/20 04:25:55;;;;;;;7.30;5.05;;;18.40;86.20;;;;;;5093677;28;20036;-74
2023/07/20 04:28:20;;;;;;;6.47;4.72;;;18.30;86.30;;;;;;5076895;28;20096;-74
2023/07/20 04:30:51;;;;;;;7.78;5.10;;;18.30;86.50;;;;;;5093134;28;20040;-74
2023/07/20 04:33:17;;;;;;;7.43;5.30;;;18.30;86.80;;;;;;5094593;28;20035;-74
2023/07/20 04:35:51;;;;;;;7.15;5.43;;;18.30;86.80;;;;;;5093555;28;20013;-75
2023/07/20 04:38:17;;;;;;;8.88;6.40;;;18.30;86.80;;;;;;5094392;28;20029;-74
2023/07/20 04:40:47;;;;;;;8.45;5.65;;;18.30;86.90;;;;;;5093521;28;20021;-74
2023/07/20 04:43:13;;;;;;;7.35;5.47;;;18.20;87.00;;;;;;5094473;28;20088;-74
2023/07/20 04:45:39;;;;;;;8.77;5.90;;;18.20;87.00;;;;;;5094280;28;20523;-74
2023/07/20 04:48:15;;;;;;;9.05;6.20;;;18.20;87.30;;;;;;5093303;28;20047;-74
2023/07/20 04:50:43;;;;;;;9.02;6.57;;;18.20;87.50;;;;;;5093114;28;20025;-74
2023/07/20 04:53:12;;;;;;;8.50;5.70;;;18.20;87.50;;;;;;5093188;28;20021;-74
2023/07/20 04:55:39;;;;;;;9.18;6.00;;;18.20;87.60;;;;;;5093065;28;20056;-74
2023/07/20 04:58:05;;;;;;;9.57;6.28;;;18.30;87.70;;;;;;5093116;28;20036;-74
2023/07/20 05:00:33;;;;;;;9.07;6.32;;;18.30;87.70;;;;;;5092987;28;20024;-74
2023/07/20 05:02:58;;;;;;;10.15;6.68;;;18.30;87.70;;;;;;5093920;28;20103;-75
2023/07/20 05:05:24;;;;;;;9.05;6.15;;;18.30;87.70;;;;;;5093898;28;20040;-74
2023/07/20 05:07:50;;;;;;;9.88;6.95;;;18.30;87.90;;;;;;5092845;28;20029;-74
2023/07/20 05:10:16;;;;;;;9.80;6.60;;;18.30;88.10;;;;;;5076251;28;20496;-74
2023/07/20 05:12:41;;;;;;;8.88;6.22;;;18.30;88.30;;;;;;5093810;28;20024;-74
2023/07/20 05:15:07;;;;;;;8.13;5.82;;;18.30;88.40;;;;;;5092777;28;20092;-74
2023/07/20 05:17:33;;;;;;;9.43;6.57;;;18.30;88.50;;;;;;5076045;28;20040;-74
2023/07/20 05:19:59;;;;;;;10.40;6.35;;;18.40;88.60;;;;;;5092814;28;20040;-74
2023/07/20 05:22:24;;;;;;;8.73;6.40;;;18.40;88.60;;;;;;5092757;28;20032;-74
2023/07/20 05:24:50;;;;;;;8.45;5.88;;;18.40;88.80;;;;;;5075906;28;20025;-74
2023/07/20 05:27:16;;;;;;;10.75;6.30;;;18.40;88.90;;;;;;5075865;28;20025;-74
2023/07/20 05:29:46;;;;;;;8.93;5.88;;;18.40;88.90;;;;;;5092619;28;20055;-74
2023/07/20 05:32:12;;;;;;;8.35;5.85;;;18.40;89.00;;;;;;5092686;28;20083;-74
2023/07/20 05:34:38;;;;;;;10.10;7.20;;;18.50;89.10;;;;;;5093419;28;20076;-73
2023/07/20 05:37:04;;;;;;;9.23;6.30;;;18.50;89.20;;;;;;5092619;28;20036;-74
2023/07/20 05:39:29;;;;;;;9.05;6.22;;;18.40;89.30;;;;;;5092364;28;20036;-74
2023/07/20 05:41:55;;;;;;;8.65;6.07;;;18.50;89.60;;;;;;5091772;28;20035;-74
2023/07/20 05:44:20;;;;;;;13.10;5.95;;;18.50;89.70;;;;;;5093376;28;20626;-74
2023/07/20 05:46:46;;;;;;;8.32;5.20;;;18.50;89.60;;;;;;5075665;28;20036;-74
2023/07/20 05:49:11;;;;;;;8.50;4.78;;;18.60;89.60;;;;;;5093320;28;20056;-74
2023/07/20 05:51:37;;;;;;;6.63;4.63;;;18.60;89.40;;;;;;5075516;28;20039;-74
2023/07/20 05:54:03;;;;;;;6.53;4.55;;;18.70;89.30;;;;;;5093053;28;20041;-74
2023/07/20 05:56:28;;;;;;;7.00;5.25;;;18.70;89.10;;;;;;5093279;28;20486;-73
2023/07/20 05:58:54;;;;;;;6.53;4.68;;;18.70;89.10;;;;;;5092285;28;20039;-74
2023/07/20 06:01:19;;;;;;;6.25;5.00;;;18.80;89.20;;;;;;5092482;28;20029;-74
2023/07/20 06:03:45;;;;;;;6.72;4.75;;;18.80;89.10;;;;;;5092198;28;20033;-74
2023/07/20 06:06:11;;;;;;;5.93;4.38;;;18.80;89.70;;;;;;5093207;28;20025;-74
2023/07/20 06:08:37;;;;;;;8.02;5.15;;;18.80;88.60;;;;;;5092367;28;20028;-74
2023/07/20 06:11:04;;;;;;;7.53;4.32;;;18.80;88.50;;;;;;5092158;28;20037;-75
2023/07/20 06:13:30;;;;;;;6.65;4.47;;;18.80;88.60;;;;;;5092055;28;20028;-74
2023/07/20 06:15:56;;;;;;;6.38;4.70;;;18.80;88.90;;;;;;5093101;28;20027;-74
2023/07/20 06:18:23;;;;;;;8.23;4.43;;;18.80;88.70;;;;;;5075372;28;20028;-73
2023/07/20 06:20:52;;;;;;;7.43;4.68;;;18.80;88.60;;;;;;5091944;28;20024;-73
2023/07/20 06:23:19;;;;;;;6.40;4.82;;;18.90;88.60;;;;;;5093002;28;20025;-75
2023/07/20 06:25:45;;;;;;;9.25;5.13;;;18.90;88.50;;;;;;5092084;28;20036;-72
2023/07/20 06:28:11;;;;;;;6.93;4.70;;;18.80;88.30;;;;;;5092954;28;20084;-72
2023/07/20 06:30:36;;;;;;;6.97;4.13;;;18.80;88.00;;;;;;5092857;28;20060;-73
2023/07/20 06:33:02;;;;;;;6.93;4.82;;;18.80;88.00;;;;;;5092016;28;20045;-74
2023/07/20 06:35:27;;;;;;;6.35;4.70;;;18.90;88.30;;;;;;5092806;28;20070;-74
2023/07/20 06:37:53;;;;;;;6.68;4.68;;;18.90;88.30;;;;;;5091857;28;20044;-74
2023/07/20 06:40:20;;;;;;;8.63;5.20;;;18.90;88.20;;;;;;5091755;28;20055;-75
2023/07/20 06:42:46;;;;;;;5.85;3.90;;;19.00;88.20;;;;;;5092086;28;20032;-72
2023/07/20 06:45:12;;;;;;;7.05;3.95;;;19.00;87.50;;;;;;5075052;28;20130;-75
2023/07/20 06:47:41;;;;;;;6.75;3.90;;;19.00;87.00;;;;;;5075239;28;20502;-73
2023/07/20 06:50:07;;;;;;;5.13;3.53;;;19.00;86.80;;;;;;5091730;28;20035;-75
2023/07/20 06:52:34;;;;;;;5.97;3.72;;;19.00;86.60;;;;;;5092566;28;20048;-74
2023/07/20 06:54:59;;;;;;;6.32;4.05;;;19.00;86.90;;;;;;5095244;28;20059;-74
2023/07/20 06:57:25;;;;;;;5.53;3.95;;;19.00;86.80;;;;;;5096376;28;20075;-72
2023/07/20 06:59:51;;;;;;;5.10;3.95;;;19.00;86.50;;;;;;5096344;28;20016;-74
2023/07/20 07:02:17;;;;;;;4.85;3.60;;;19.00;86.20;;;;;;5096230;28;20024;-72
2023/07/20 07:04:43;;;;;;;5.47;3.78;;;19.00;85.90;;;;;;5096221;28;20039;-74
2023/07/20 07:07:09;;;;;;;4.18;3.55;;;19.00;85.70;;;;;;5096203;28;20071;-74
2023/07/20 07:09:35;;;;;;;3.95;3.30;;;19.00;85.30;;;;;;5096094;28;20025;-75
2023/07/20 07:12:01;;;;;;;5.55;3.80;;;19.00;85.10;;;;;;5095222;28;20084;-74
2023/07/20 07:14:26;;;;;;;6.50;4.25;;;19.10;85.00;;;;;;5096083;28;20029;-73
2023/07/20 07:16:52;;;;;;;6.07;3.88;;;19.10;85.00;;;;;;5096039;28;20025;-72
2023/07/20 07:19:18;;;;;;;5.75;3.80;;;19.20;85.00;;;;;;5095000;28;20028;-73
2023/07/20 07:21:43;;;;;;;8.13;3.80;;;19.20;85.10;;;;;;5095906;28;20029;-74
2023/07/20 07:24:09;;;;;;;3.63;2.83;;;19.20;85.10;;;;;;5078142;28;20032;-74
2023/07/20 07:26:36;;;;;;;4.05;2.85;;;19.20;84.20;;;;;;5095851;28;20025;-75
2023/07/20 07:29:02;;;;;;;4.82;3.00;;;19.20;84.40;;;;;;5095926;28;20028;-74
2023/07/20 07:31:30;;;;;;;4.35;2.58;;;19.30;84.60;;;;;;5095595;28;20134;-74
2023/07/20 07:33:56;;;;;;;4.15;2.47;;;19.30;84.30;;;;;;5095642;28;20021;-74
2023/07/20 07:36:24;;;;;;;2.75;1.52;;;19.40;84.20;;;;;;5095679;28;20025;-74
2023/07/20 07:38:49;;;;;;;2.50;2.00;;;19.50;83.10;;;;;;5095624;28;20013;-74
2023/07/20 07:41:15;;;;;;;3.47;2.45;;;19.50;82.70;;;;;;5095585;28;20040;-74
2023/07/20 07:43:41;;;;;;;5.95;2.60;;;19.60;82.30;;;;;;5094622;28;20035;-74
2023/07/20 07:46:07;;;;;;;1.98;1.50;;;19.60;81.90;;;;;;5095468;28;20131;-74
2023/07/20 07:48:32;;;;;;;3.17;1.50;;;19.70;82.00;;;;;;5077733;28;20021;-74
2023/07/20 07:50:58;;;;;;;2.47;1.73;;;19.70;82.20;;;;;;5077533;28;20390;-74
2023/07/20 07:53:25;;;;;;;2.00;1.73;;;19.80;82.30;;;;;;5094321;28;20028;-74
2023/07/20 07:55:52;;;;;;;3.22;1.63;;;19.80;80.90;;;;;;5094241;28;20085;-74
2023/07/20 07:58:18;;;;;;;2.83;1.67;;;19.90;81.00;;;;;;5095252;28;20095;-75
2023/07/20 08:00:44;;;;;;;2.63;1.60;;;19.90;80.60;;;;;;5095192;28;20029;-74
2023/07/20 08:03:10;;;;;;;1.45;1.27;;;20.00;80.90;;;;;;5094232;28;20028;-74
2023/07/20 08:05:36;;;;;;;4.75;2.40;;;20.10;80.20;;;;;;5094360;28;20471;-74
2023/07/20 08:08:03;;;;;;;3.17;2.22;;;20.10;79.90;;;;;;5095026;28;20055;-74
2023/07/20 08:10:29;;;;;;;3.35;1.58;;;20.20;79.80;;;;;;5093909;28;20021;-74
2023/07/20 08:12:55;;;;;;;2.20;1.60;;;20.30;79.50;;;;;;5077314;28;20028;-74
2023/07/20 08:15:21;;;;;;;4.05;2.05;;;20.40;79.40;;;;;;5093910;28;20024;-75
2023/07/20 08:17:48;;;;;;;2.85;1.98;;;20.40;78.40;;;;;;5095011;28;20032;-74
2023/07/20 08:20:16;;;;;;;2.72;1.98;;;20.40;77.70;;;;;;5093752;28;20091;-75
2023/07/20 08:22:41;;;;;;;2.67;1.92;;;20.40;78.00;;;;;;5094761;28;20043;-75
2023/07/20 08:25:08;;;;;;;2.65;1.92;;;20.30;78.10;;;;;;5093872;28;20032;-75
2023/07/20 08:27:34;;;;;;;2.33;2.00;;;20.40;78.00;;;;;;5077182;28;20024;-76
2023/07/20 08:30:00;;;;;;;2.20;1.77;;;20.40;78.10;;;;;;5094529;28;20055;-76
2023/07/20 08:32:26;;;;;;;3.90;1.90;;;20.40;78.00;;;;;;5093780;28;20025;-76
2023/07/20 08:34:52;;;;;;;2.20;1.85;;;20.30;77.90;;;;;;5076952;28;20021;-76
2023/07/20 08:37:17;;;;;;;4.43;1.80;;;20.20;77.50;;;;;;5094475;28;20111;-76
2023/07/20 08:39:43;;;;;;;3.13;1.90;;;20.10;77.80;;;;;;5093361;28;20058;-76
2023/07/20 08:42:10;;;;;;;3.38;2.08;;;20.10;78.20;;;;;;5093390;28;20021;-76
2023/07/20 08:44:38;;;;;;;3.97;2.17;;;20.10;78.40;;;;;;5094330;28;20059;-76
2023/07/20 08:47:05;;;;;;;2.90;2.00;;;20.00;77.80;;;;;;5093300;28;20032;-76
2023/07/20 08:49:35;;;;;;;2.00;1.80;;;20.00;76.50;;;;;;5093286;28;20024;-76
2023/07/20 08:52:01;;;;;;;2.55;2.00;;;20.00;76.90;;;;;;5093020;28;20029;-77
2023/07/20 08:54:32;;;;;;;2.50;2.10;;;20.00;76.30;;;;;;5092959;28;20040;-76
2023/07/20 08:57:01;;;;;;;3.03;2.10;;;20.00;76.10;;;;;;5094209;28;20017;-76
2023/07/20 08:59:28;;;;;;;3.20;2.05;;;20.00;76.50;;;;;;5093004;28;20017;-76
2023/07/20 09:01:56;;;;;;;43.30;3.60;;;20.10;78.00;;;;;;5094008;28;20410;-76
2023/07/20 09:04:22;;;;;;;22.02;3.00;;;20.20;77.50;;;;;;5093038;28;20056;-76
2023/07/20 09:06:49;;;;;;;5.25;2.80;;;20.40;77.60;;;;;;5092978;28;20032;-77
2023/07/20 09:09:15;;;;;;;5.28;2.17;;;20.50;76.70;;;;;;5093841;28;20032;-78
2023/07/20 09:11:41;;;;;;;9.05;2.10;;;20.50;76.90;;;;;;5093746;28;20092;-77
2023/07/20 09:14:08;;;;;;;40.05;4.10;;;20.60;76.80;;;;;;5076101;28;20104;-77
2023/07/20 09:16:54;;;;;;;3.67;2.20;;;20.70;75.40;;;;;;5093632;28;20044;-76
2023/07/20 09:19:20;;;;;;;4.15;2.25;;;20.80;78.20;;;;;;5092530;28;20039;-77
2023/07/20 09:21:51;;;;;;;4.00;2.20;;;20.60;75.80;;;;;;5092591;28;20036;-77
2023/07/20 09:24:20;;;;;;;2.30;2.10;;;20.50;75.90;;;;;;5092729;28;20537;-78
2023/07/20 09:26:50;;;;;;;2.78;1.70;;;20.50;75.90;;;;;;5093665;28;20024;-76
2023/07/20 09:29:20;;;;;;;2.38;1.50;;;20.50;75.60;;;;;;5092949;28;20047;-76
2023/07/20 09:32:04;;;;;;;3.17;1.55;;;20.70;74.70;;;;;;5092441;28;20032;-76
2023/07/20 09:34:34;;;;;;;1.95;1.75;;;20.70;72.90;;;;;;5092368;28;20020;-76
2023/07/20 09:37:00;;;;;;;2.53;1.67;;;20.80;74.30;;;;;;5092387;28;20096;-77
2023/07/20 09:39:26;;;;;;;1.73;1.63;;;20.80;73.30;;;;;;5093451;28;20028;-77
2023/07/20 09:41:52;;;;;;;5.82;1.98;;;20.80;74.20;;;;;;5093426;28;20034;-77
2023/07/20 09:44:19;;;;;;;4.57;1.60;;;20.80;74.50;;;;;;5092331;28;20036;-77
2023/07/20 09:46:50;;;;;;;2.13;1.42;;;20.80;73.70;;;;;;5093372;28;20028;-77
2023/07/20 09:49:19;;;;;;;1.58;1.40;;;20.80;72.90;;;;;;5092455;28;20028;-82
2023/07/20 09:51:46;;;;;;;7.30;1.80;;;20.70;73.00;;;;;;5092296;28;20020;-77
2023/07/20 09:54:13;;;;;;;1.95;1.60;;;20.70;73.20;;;;;;5092167;28;20040;-77
2023/07/20 09:56:40;;;;;;;2.35;1.70;;;20.70;73.60;;;;;;5092316;28;20021;-77
2023/07/20 09:59:06;;;;;;;2.40;1.30;;;20.70;74.20;;;;;;5092321;28;20028;-77
2023/07/20 10:01:34;;;;;;;33.28;2.30;;;20.60;74.20;;;;;;5075454;28;20036;-77
2023/07/20 10:04:04;;;;;;;3.35;1.63;;;20.50;74.40;;;;;;5093150;28;20025;-77
2023/07/20 10:06:32;;;;;;;2.30;1.65;;;20.50;74.60;;;;;;5092066;28;20097;-79
2023/07/20 10:09:03;;;;;;;2.97;2.13;;;20.60;75.20;;;;;;5092301;28;20021;-81
2023/07/20 10:11:31;;;;;;;3.75;2.50;;;20.50;75.10;;;;;;5093447;28;20024;-79
2023/07/20 10:14:00;;;;;;;5.15;2.78;;;20.50;75.50;;;;;;5092040;28;20017;-79
2023/07/20 10:16:31;;;;;;;4.93;2.50;;;20.50;75.50;;;;;;5093136;28;20021;-77
2023/07/20 10:19:26;;;;;;;4.22;2.92;;;20.60;75.50;;;;;;5093056;28;20024;-78
2023/07/20 10:22:00;;;;;;;5.25;3.20;;;20.60;75.40;;;;;;5092108;28;20017;-75
2023/07/20 10:24:27;;;;;;;4.38;3.40;;;20.60;74.70;;;;;;5093055;28;20106;-78
2023/07/20 10:26:55;;;;;;;6.10;3.50;;;20.50;75.10;;;;;;5075475;28;20020;-78
2023/07/20 10:29:22;;;;;;;4.32;3.40;;;20.50;75.30;;;;;;5095795;28;20020;-79
2023/07/20 10:31:49;;;;;;;4.60;3.25;;;20.30;74.30;;;;;;5079269;28;20040;-78
2023/07/20 10:34:15;;;;;;;3.78;3.20;;;20.30;73.20;;;;;;5095902;28;20024;-78
2023/07/20 10:36:46;;;;;;;3.70;2.90;;;20.40;74.40;;;;;;5095891;28;20028;-78
2023/07/20 10:39:27;;;;;;;4.10;3.70;;;20.60;74.50;;;;;;5095785;28;20029;-78
2023/07/20 10:42:09;;;;;;;4.45;3.70;;;20.90;73.80;;;;;;5096732;28;20024;-77
2023/07/20 10:44:39;;;;;;;4.82;3.20;;;20.90;73.00;;;;;;5095693;28;20035;-77
2023/07/20 10:47:12;;;;;;;3.50;3.10;;;21.00;74.00;;;;;;5096634;28;20032;-76
2023/07/20 10:50:00;;;;;;;3.30;2.08;;;21.30;74.30;;;;;;5095550;28;20024;-76
2023/07/20 10:52:25;;;;;;;2.75;2.20;;;21.40;71.70;;;;;;5096662;28;20025;-77
2023/07/20 10:54:51;;;;;;;4.20;2.63;;;21.40;68.30;;;;;;5078596;28;20044;-76
2023/07/20 10:57:33;;;;;;;3.90;3.15;;;21.30;68.80;;;;;;5095390;28;20055;-76
2023/07/20 11:00:13;;;;;;;3.85;3.15;;;21.30;70.90;;;;;;5095498;28;20013;-77
2023/07/20 11:02:47;;;;;;;4.60;3.28;;;21.30;72.80;;;;;;5096390;28;20024;-77
2023/07/20 11:05:32;;;;;;;4.65;3.15;;;21.40;72.60;;;;;;5095287;28;20020;-77
2023/07/20 11:07:58;;;;;;;4.97;3.20;;;21.40;71.10;;;;;;5095314;28;20074;-76
2023/07/20 11:10:24;;;;;;;3.97;2.70;;;21.40;69.50;;;;;;5095214;28;20029;-76
2023/07/20 11:13:25;;;;;;;4.07;2.95;;;21.50;70.30;;;;;;5078455;28;20567;-76
2023/07/20 11:15:57;;;;;;;2.95;2.60;;;21.60;70.00;;;;;;5092023;28;20033;-76
2023/07/20 11:18:26;;;;;;;3.92;2.50;;;21.80;71.00;;;;;;5095156;28;20029;-75
2023/07/20 11:20:53;;;;;;;3.55;2.80;;;21.80;68.20;;;;;;5096032;28;20471;-69
2023/07/20 11:23:20;;;;;;;3.28;2.60;;;21.90;68.60;;;;;;5095984;28;20021;-67
2023/07/20 11:25:46;;;;;;;3.13;2.33;;;22.00;69.70;;;;;;5095930;28;20032;-76
2023/07/20 11:28:11;;;;;;;3.17;2.30;;;22.10;69.30;;;;;;5095950;28;20029;-75
2023/07/20 11:30:41;;;;;;;3.60;2.20;;;22.30;69.10;;;;;;5094714;28;20036;-69
2023/07/20 11:33:08;;;;;;;3.17;2.20;;;22.40;67.90;;;;;;5094892;28;20080;-76
2023/07/20 11:35:45;;;;;;;3.33;2.53;;;22.50;67.80;;;;;;5077928;28;20092;-77
2023/07/20 11:38:12;;;;;;;3.63;2.70;;;22.60;67.50;;;;;;5094600;28;20063;-76
2023/07/20 11:40:43;;;;;;;3.13;2.35;;;22.50;67.00;;;;;;5093485;28;20028;-77
2023/07/20 11:43:11;;;;;;;3.13;2.15;;;22.50;66.10;;;;;;5095534;28;20029;-77
2023/07/20 11:45:38;;;;;;;2.90;2.30;;;22.50;66.70;;;;;;5095559;28;20028;-77
2023/07/20 11:48:03;;;;;;;4.05;2.40;;;22.50;67.30;;;;;;5077874;28;20029;-78
2023/07/20 11:50:29;;;;;;;2.95;2.47;;;22.40;66.40;;;;;;5077585;28;20025;-77
2023/07/20 11:52:56;;;;;;;3.38;2.60;;;22.30;67.10;;;;;;5095464;28;20021;-77
2023/07/20 11:55:22;;;;;;;3.28;2.20;;;22.40;67.40;;;;;;5077495;28;20090;-77
2023/07/20 11:58:08;;;;;;;3.67;2.22;;;22.30;66.60;;;;;;5094217;28;20035;-74
2023/07/20 12:00:35;;;;;;;4.53;2.47;;;22.50;68.30;;;;;;5095225;28;20048;-73
2023/07/20 12:03:00;;;;;;;3.42;2.22;;;22.40;65.70;;;;;;5095186;28;20024;-73
2023/07/20 12:05:26;;;;;;;2.97;2.00;;;22.40;66.70;;;;;;5095117;28;20048;-76
2023/07/20 12:07:52;;;;;;;2.60;2.10;;;22.60;67.10;;;;;;5095094;28;20024;-68
2023/07/20 12:10:26;;;;;;;2.80;2.30;;;22.80;67.20;;;;;;5094042;28;20039;-69
2023/07/20 12:12:51;;;;;;;4.20;2.13;;;23.00;67.30;;;;;;5094128;28;20033;-68
2023/07/20 12:15:24;;;;;;;3.38;2.28;;;23.10;67.20;;;;;;5094907;28;20031;-67
2023/07/20 12:17:52;;;;;;;2.75;1.80;;;23.20;66.80;;;;;;5094921;28;20090;-72
2023/07/20 12:20:31;;;;;;;2.88;2.00;;;23.30;66.80;;;;;;5094836;28;20032;-77
2023/07/20 12:23:02;;;;;;;2.75;1.75;;;23.40;66.50;;;;;;5077733;28;20032;-77
2023/07/20 12:25:48;;;;;;;2.78;1.90;;;23.40;64.90;;;;;;5077381;28;20029;-77
2023/07/20 12:28:15;;;;;;;2.58;1.95;;;23.50;63.60;;;;;;5093573;28;20036;-78
2023/07/20 12:30:42;;;;;;;3.67;1.98;;;23.60;64.90;;;;;;5094553;28;20029;-78
2023/07/20 12:33:08;;;;;;;3.58;2.70;;;23.70;63.60;;;;;;5076812;28;20025;-77
2023/07/20 12:35:34;;;;;;;2.92;2.38;;;23.70;62.80;;;;;;5093610;28;20031;-77
2023/07/20 12:38:00;;;;;;;2.25;2.05;;;23.50;62.70;;;;;;5093548;28;20092;-77
2023/07/20 12:40:26;;;;;;;3.63;2.00;;;23.30;61.90;;;;;;5094458;28;20020;-77
2023/07/20 12:42:52;;;;;;;2.88;2.10;;;23.30;62.20;;;;;;5093505;28;20050;-78
2023/07/20 12:45:18;;;;;;;2.97;1.85;;;23.20;63.00;;;;;;5076645;28;20027;-76
2023/07/20 12:47:43;;;;;;;2.63;1.80;;;23.10;62.90;;;;;;5093372;28;20433;-77